createdAt,value
2023-01-19T00:00:39.901Z,64.13
2023-01-19T00:03:06.537Z,64.22
2023-01-19T00:05:33.780Z,64.60
2023-01-19T00:08:14.710Z,64.38
2023-01-19T00:10:43.624Z,64.80
2023-01-19T00:13:09.949Z,64.96
2023-01-19T00:15:36.452Z,64.94
2023-01-19T00:18:02.853Z,64.68
2023-01-19T00:20:31.916Z,64.58
2023-01-19T00:22:59.062Z,64.50
2023-01-19T00:25:25.661Z,64.61
2023-01-19T00:27:51.991Z,64.55
2023-01-19T00:30:18.373Z,64.40
2023-01-19T00:32:44.795Z,64.37
2023-01-19T00:35:11.111Z,64.40
2023-01-19T00:37:37.557Z,64.44
2023-01-19T00:40:04.267Z,64.59
2023-01-19T00:42:44.613Z,64.37
2023-01-19T00:45:14.476Z,64.25
2023-01-19T00:47:40.860Z,64.59
2023-01-19T00:50:09.087Z,64.19
2023-01-19T00:52:35.424Z,64.49
2023-01-19T00:55:01.760Z,64.20
2023-01-19T00:57:29.559Z,64.10
2023-01-19T00:59:55.879Z,64.71
2023-01-19T01:02:22.354Z,64.54
2023-01-19T01:04:48.996Z,64.34
2023-01-19T01:07:15.309Z,64.61
2023-01-19T01:09:41.672Z,64.46
2023-01-19T01:12:08.059Z,64.38
2023-01-19T01:14:34.374Z,64.26
2023-01-19T01:17:00.860Z,64.21
2023-01-19T01:19:27.407Z,64.40
2023-01-19T01:21:54.107Z,64.47
2023-01-19T01:24:20.725Z,64.70
2023-01-19T01:26:47.085Z,64.72
2023-01-19T01:29:13.486Z,64.61
2023-01-19T01:31:40.145Z,64.39
2023-01-19T01:34:06.545Z,64.76
2023-01-19T01:36:33.442Z,64.46
2023-01-19T01:39:00.333Z,64.51
2023-01-19T01:41:27.433Z,64.30
2023-01-19T01:43:59.922Z,64.62
2023-01-19T01:46:28.212Z,64.61
2023-01-19T01:49:16.260Z,64.59
2023-01-19T01:51:48.199Z,64.49
2023-01-19T01:54:19.900Z,64.52
2023-01-19T01:56:51.818Z,64.74
2023-01-19T01:59:38.953Z,64.44
2023-01-19T02:02:28.447Z,64.74
2023-01-19T02:05:00.743Z,64.54
2023-01-19T02:07:56.601Z,64.38
2023-01-19T02:10:41.925Z,64.64
2023-01-19T02:13:20.808Z,64.92
2023-01-19T02:15:53.165Z,64.66
2023-01-19T02:18:22.368Z,64.68
2023-01-19T02:21:12.851Z,64.86
2023-01-19T02:23:44.080Z,65.14
2023-01-19T02:26:13.914Z,64.90
2023-01-19T02:28:46.437Z,64.85
2023-01-19T02:31:13.042Z,65.22
2023-01-19T02:33:39.387Z,65.06
2023-01-19T02:36:08.168Z,65.06
2023-01-19T02:38:35.840Z,64.99
2023-01-19T02:41:04.572Z,65.00
2023-01-19T02:43:32.081Z,65.21
2023-01-19T02:45:58.863Z,65.28
2023-01-19T02:48:25.312Z,65.20
2023-01-19T02:50:57.359Z,65.05
2023-01-19T02:53:32.735Z,64.98
2023-01-19T02:56:28.504Z,65.13
2023-01-19T02:58:58.877Z,65.23
2023-01-19T03:01:44.002Z,65.04
2023-01-19T03:04:24.991Z,64.80
2023-01-19T03:07:14.296Z,64.95
2023-01-19T03:09:58.069Z,64.95
2023-01-19T03:12:35.623Z,64.97
2023-01-19T03:15:13.436Z,65.18
2023-01-19T03:17:42.728Z,65.18
2023-01-19T03:20:13.601Z,65.47
2023-01-19T03:22:40.820Z,65.75
2023-01-19T03:25:08.814Z,65.61
2023-01-19T03:27:41.077Z,65.36
2023-01-19T03:30:20.027Z,65.49
2023-01-19T03:32:59.054Z,65.43
2023-01-19T03:35:31.555Z,65.86
2023-01-19T03:38:00.207Z,65.60
2023-01-19T03:40:29.310Z,65.99
2023-01-19T03:42:56.443Z,65.70
2023-01-19T03:45:23.541Z,66.08
2023-01-19T03:47:50.379Z,65.77
2023-01-19T03:50:29.555Z,66.16
2023-01-19T03:53:06.792Z,65.76
2023-01-19T03:55:34.802Z,66.07
2023-01-19T03:58:01.163Z,65.85
2023-01-19T04:00:27.556Z,66.03
2023-01-19T04:02:53.943Z,65.86
2023-01-19T04:05:20.348Z,66.21
2023-01-19T04:07:50.712Z,66.21
2023-01-19T04:10:18.558Z,66.28
2023-01-19T04:12:45.503Z,66.10
2023-01-19T04:15:12.306Z,65.93
2023-01-19T04:17:39.519Z,66.05
2023-01-19T04:20:07.726Z,66.40
2023-01-19T04:22:35.372Z,66.37
2023-01-19T04:25:01.715Z,66.10
2023-01-19T04:27:28.731Z,66.01
2023-01-19T04:29:55.068Z,66.33
2023-01-19T04:32:21.499Z,66.11
2023-01-19T04:34:48.108Z,66.41
2023-01-19T04:37:14.460Z,66.11
2023-01-19T04:39:40.853Z,66.05
2023-01-19T04:42:07.547Z,66.22
2023-01-19T04:44:34.037Z,66.39
2023-01-19T04:47:01.486Z,66.24
2023-01-19T04:49:27.847Z,66.33
2023-01-19T04:51:54.476Z,66.10
2023-01-19T04:54:21.674Z,66.30
2023-01-19T04:56:48.159Z,65.85
2023-01-19T04:59:14.544Z,66.17
2023-01-19T05:01:40.950Z,65.98
2023-01-19T05:04:08.380Z,66.12
2023-01-19T05:06:35.032Z,65.83
2023-01-19T05:09:01.464Z,66.18
2023-01-19T05:11:27.785Z,66.20
2023-01-19T05:13:54.202Z,65.92
2023-01-19T05:16:20.658Z,66.41
2023-01-19T05:18:47.064Z,66.17
2023-01-19T05:21:13.432Z,66.20
2023-01-19T05:23:39.781Z,66.09
2023-01-19T05:26:06.288Z,66.22
2023-01-19T05:28:33.435Z,65.91
2023-01-19T05:30:59.917Z,66.14
2023-01-19T05:33:26.331Z,66.28
2023-01-19T05:35:53.888Z,66.04
2023-01-19T05:38:34.244Z,65.97
2023-01-19T05:41:01.608Z,66.14
2023-01-19T05:43:28.005Z,65.95
2023-01-19T05:45:54.355Z,65.86
2023-01-19T05:48:20.715Z,65.96
2023-01-19T05:50:49.361Z,66.13
2023-01-19T05:53:16.464Z,66.22
2023-01-19T05:55:42.996Z,66.41
2023-01-19T05:58:09.329Z,66.31
2023-01-19T06:00:35.686Z,66.26
2023-01-19T06:03:02.528Z,66.17
2023-01-19T06:05:29.687Z,66.15
2023-01-19T06:07:57.038Z,66.22
2023-01-19T06:10:23.518Z,65.97
2023-01-19T06:12:50.102Z,66.21
2023-01-19T06:15:16.810Z,66.19
2023-01-19T06:17:43.160Z,66.42
2023-01-19T06:20:10.434Z,66.33
2023-01-19T06:22:36.904Z,66.45
2023-01-19T06:25:03.370Z,66.52
2023-01-19T06:27:29.929Z,66.23
2023-01-19T06:29:56.295Z,66.43
2023-01-19T06:32:22.760Z,66.54
2023-01-19T06:34:49.086Z,66.22
2023-01-19T06:37:16.664Z,66.20
2023-01-19T06:39:45.134Z,66.45
2023-01-19T06:42:11.552Z,66.27
2023-01-19T06:44:38.036Z,66.69
2023-01-19T06:47:15.580Z,66.50
2023-01-19T06:49:42.472Z,66.39
2023-01-19T06:52:15.713Z,66.64
2023-01-19T06:54:43.343Z,66.41
2023-01-19T06:57:11.989Z,66.25
2023-01-19T06:59:38.779Z,65.96
2023-01-19T07:02:27.212Z,66.19
2023-01-19T07:04:51.795Z,66.44
2023-01-19T07:07:18.281Z,66.29
2023-01-19T07:09:44.612Z,66.17
2023-01-19T07:12:10.972Z,66.16
2023-01-19T07:14:37.361Z,66.08
2023-01-19T07:17:07.456Z,66.38
2023-01-19T07:19:35.173Z,66.30
2023-01-19T07:22:02.282Z,66.14
2023-01-19T07:24:30.524Z,66.45
2023-01-19T07:26:56.891Z,66.32
2023-01-19T07:29:23.247Z,66.52
2023-01-19T07:31:50.108Z,66.31
2023-01-19T07:34:16.866Z,66.46
2023-01-19T07:36:43.999Z,66.50
2023-01-19T07:39:10.338Z,66.26
2023-01-19T07:41:36.696Z,66.25
2023-01-19T07:44:03.315Z,66.25
2023-01-19T07:46:29.743Z,66.46
2023-01-19T07:48:56.311Z,66.42
2023-01-19T07:51:23.012Z,66.18
2023-01-19T07:53:50.408Z,66.19
2023-01-19T07:56:16.835Z,66.31
2023-01-19T07:58:43.588Z,66.10
2023-01-19T08:01:13.531Z,66.00
2023-01-19T08:03:40.060Z,66.14
2023-01-19T08:06:06.883Z,66.45
2023-01-19T08:08:33.909Z,66.34
2023-01-19T08:11:00.435Z,66.37
2023-01-19T08:13:26.892Z,66.21
2023-01-19T08:15:54.062Z,65.99
2023-01-19T08:18:21.276Z,65.99
2023-01-19T08:20:47.709Z,65.92
2023-01-19T08:23:14.238Z,66.05
2023-01-19T08:25:44.304Z,66.36
2023-01-19T08:28:13.391Z,66.36
2023-01-19T08:30:44.578Z,66.18
2023-01-19T08:33:12.582Z,66.49
2023-01-19T08:35:43.411Z,66.72
2023-01-19T08:38:10.375Z,66.52
2023-01-19T08:40:38.999Z,66.51
2023-01-19T08:43:07.955Z,66.15
2023-01-19T08:45:41.353Z,66.47
2023-01-19T08:48:08.109Z,66.41
2023-01-19T08:50:34.737Z,66.14
2023-01-19T08:53:03.406Z,66.37
2023-01-19T08:55:30.368Z,66.66
2023-01-19T08:58:00.000Z,66.73
2023-01-19T09:00:27.169Z,66.59
2023-01-19T09:02:54.286Z,66.32
2023-01-19T09:05:20.916Z,66.41
2023-01-19T09:07:48.197Z,66.15
2023-01-19T09:10:15.956Z,66.45
2023-01-19T09:12:43.882Z,66.26
2023-01-19T09:15:13.719Z,66.31
2023-01-19T09:17:42.140Z,66.80
2023-01-19T09:20:09.234Z,66.56
2023-01-19T09:22:35.690Z,66.30
2023-01-19T09:25:02.533Z,66.36
2023-01-19T09:27:28.864Z,66.46
2023-01-19T09:29:55.198Z,66.21
2023-01-19T09:32:24.300Z,66.44
2023-01-19T09:34:51.022Z,66.28
2023-01-19T09:37:17.505Z,66.69
2023-01-19T09:39:43.878Z,66.79
2023-01-19T09:42:35.195Z,66.37
2023-01-19T09:45:05.791Z,66.60
2023-01-19T09:47:35.551Z,66.67
2023-01-19T09:50:06.717Z,66.38
2023-01-19T09:52:39.473Z,66.96
2023-01-19T09:55:20.464Z,66.62
2023-01-19T09:57:46.796Z,66.77
2023-01-19T10:00:19.044Z,66.93
2023-01-19T10:02:56.336Z,66.56
2023-01-19T10:05:28.807Z,67.05
2023-01-19T10:08:16.374Z,66.89
2023-01-19T10:10:47.893Z,66.64
2023-01-19T10:13:14.185Z,66.91
2023-01-19T10:16:02.023Z,66.87
2023-01-19T10:18:43.153Z,66.57
2023-01-19T10:21:18.068Z,67.10
2023-01-19T10:23:52.336Z,66.96
2023-01-19T10:26:28.041Z,67.06
2023-01-19T10:28:57.512Z,66.62
2023-01-19T10:31:24.539Z,66.77
2023-01-19T10:33:52.524Z,66.81
2023-01-19T10:36:24.147Z,66.63
2023-01-19T10:38:50.901Z,66.90
2023-01-19T10:41:38.895Z,66.63
2023-01-19T10:44:05.742Z,67.07
2023-01-19T10:46:42.016Z,66.70
2023-01-19T10:49:27.959Z,66.63
2023-01-19T10:51:57.197Z,66.79
2023-01-19T10:54:25.420Z,66.35
2023-01-19T10:57:38.260Z,66.53
2023-01-19T11:00:33.923Z,66.56
2023-01-19T11:03:00.929Z,66.78
2023-01-19T11:05:32.862Z,66.48
2023-01-19T11:07:59.490Z,66.98
2023-01-19T11:10:30.330Z,66.71
2023-01-19T11:13:07.578Z,67.07
2023-01-19T11:15:58.607Z,67.05
2023-01-19T11:18:31.292Z,67.38
2023-01-19T11:21:02.162Z,67.60
2023-01-19T11:23:32.583Z,67.77
2023-01-19T11:26:01.960Z,67.64
2023-01-19T11:28:34.536Z,67.02
2023-01-19T11:31:11.062Z,67.30
2023-01-19T11:33:45.145Z,67.38
2023-01-19T11:36:33.299Z,67.05
2023-01-19T11:39:23.752Z,66.68
2023-01-19T11:41:54.912Z,66.80
2023-01-19T11:44:25.252Z,66.64
2023-01-19T11:46:58.528Z,66.30
2023-01-19T11:49:32.962Z,66.17
2023-01-19T11:52:17.826Z,66.08
2023-01-19T11:54:56.124Z,65.25
2023-01-19T11:57:22.758Z,64.78
2023-01-19T11:59:51.969Z,64.58
2023-01-19T12:02:31.980Z,64.73
2023-01-19T12:05:04.013Z,64.65
2023-01-19T12:07:34.813Z,64.64
2023-01-19T12:10:29.714Z,64.58
2023-01-19T12:12:57.306Z,64.06
2023-01-19T12:15:41.863Z,64.06
2023-01-19T12:18:17.830Z,64.22
2023-01-19T12:20:49.657Z,63.93
2023-01-19T12:23:22.454Z,63.95
2023-01-19T12:25:58.171Z,64.25
2023-01-19T12:28:31.436Z,64.18
2023-01-19T12:31:00.262Z,63.81
2023-01-19T12:33:26.602Z,63.21
2023-01-19T12:36:00.902Z,63.24
2023-01-19T12:38:48.865Z,62.85
2023-01-19T12:41:22.525Z,62.96
2023-01-19T12:44:11.082Z,62.90
2023-01-19T12:47:06.417Z,62.67
2023-01-19T12:49:38.691Z,62.46
2023-01-19T12:52:17.340Z,62.73
2023-01-19T12:54:58.260Z,62.58
2023-01-19T12:57:38.971Z,62.73
2023-01-19T13:00:25.289Z,62.63
2023-01-19T13:02:55.755Z,62.72
2023-01-19T13:05:24.386Z,62.10
2023-01-19T13:08:03.126Z,62.74
2023-01-19T13:11:00.698Z,62.07
2023-01-19T13:13:36.835Z,62.38
2023-01-19T13:16:18.496Z,62.45
2023-01-19T13:18:58.690Z,62.16
2023-01-19T13:21:49.505Z,62.32
2023-01-19T13:24:19.210Z,61.96
2023-01-19T13:26:51.469Z,61.53
2023-01-19T13:29:32.983Z,61.46
2023-01-19T13:32:05.138Z,61.42
2023-01-19T13:34:42.346Z,61.49
2023-01-19T13:37:18.599Z,60.45
2023-01-19T13:40:01.221Z,61.04
2023-01-19T13:42:35.955Z,61.72
2023-01-19T13:45:15.583Z,61.47
2023-01-19T13:47:46.696Z,61.04
2023-01-19T13:50:34.242Z,61.03
2023-01-19T13:53:01.387Z,59.54
2023-01-19T13:55:30.126Z,59.22
2023-01-19T13:57:56.821Z,58.96
2023-01-19T14:00:25.869Z,59.04
2023-01-19T14:03:02.536Z,58.48
2023-01-19T14:05:37.613Z,59.09
2023-01-19T14:08:13.000Z,59.22
2023-01-19T14:11:01.186Z,59.25
2023-01-19T14:13:43.129Z,59.59
2023-01-19T14:16:17.193Z,59.66
2023-01-19T14:18:43.778Z,59.43
2023-01-19T14:21:14.744Z,59.68
2023-01-19T14:24:10.435Z,59.54
2023-01-19T14:26:48.949Z,59.44
2023-01-19T14:29:24.416Z,59.56
2023-01-19T14:31:59.945Z,59.64
2023-01-19T14:34:43.196Z,59.37
2023-01-19T14:37:38.075Z,59.45
2023-01-19T14:40:14.760Z,59.82
2023-01-19T14:42:54.687Z,59.76
2023-01-19T14:45:30.239Z,60.27
2023-01-19T14:48:05.004Z,60.57
2023-01-19T14:50:37.541Z,60.45
2023-01-19T14:53:27.872Z,60.50
2023-01-19T14:55:59.210Z,60.59
2023-01-19T14:58:29.507Z,60.57
2023-01-19T15:00:56.271Z,60.72
2023-01-19T15:03:26.848Z,60.73
2023-01-19T15:06:04.296Z,61.09
2023-01-19T15:08:34.129Z,61.27
2023-01-19T15:11:10.780Z,60.84
2023-01-19T15:13:38.991Z,61.26
2023-01-19T15:16:06.714Z,60.99
2023-01-19T15:18:33.247Z,61.50
2023-01-19T15:21:03.010Z,61.58
2023-01-19T15:23:32.872Z,61.93
2023-01-19T15:26:01.319Z,61.94
2023-01-19T15:28:28.106Z,61.79
2023-01-19T15:30:54.591Z,61.80
2023-01-19T15:33:26.795Z,61.81
2023-01-19T15:35:53.639Z,61.64
2023-01-19T15:38:20.079Z,61.27
2023-01-19T15:40:51.229Z,61.80
2023-01-19T15:43:17.971Z,61.48
2023-01-19T15:45:59.832Z,61.38
2023-01-19T15:48:26.221Z,61.05
2023-01-19T15:50:52.638Z,61.37
2023-01-19T15:53:21.064Z,61.68
2023-01-19T15:55:52.584Z,61.43
2023-01-19T15:58:20.548Z,61.74
2023-01-19T16:00:55.059Z,62.18
2023-01-19T16:03:21.802Z,61.99
2023-01-19T16:05:48.643Z,61.97
2023-01-19T16:08:15.175Z,62.92
2023-01-19T16:10:42.169Z,62.77
2023-01-19T16:13:10.367Z,63.08
2023-01-19T16:15:38.053Z,62.89
2023-01-19T16:18:05.544Z,63.25
2023-01-19T16:20:32.081Z,63.22
2023-01-19T16:23:09.706Z,63.25
2023-01-19T16:25:40.516Z,63.26
2023-01-19T16:28:08.148Z,63.47
2023-01-19T16:30:34.523Z,63.14
2023-01-19T16:33:00.935Z,63.14
2023-01-19T16:35:27.272Z,63.47
2023-01-19T16:37:53.720Z,63.15
2023-01-19T16:40:20.353Z,63.07
2023-01-19T16:42:47.273Z,63.29
2023-01-19T16:45:13.813Z,62.72
2023-01-19T16:47:40.299Z,63.24
2023-01-19T16:50:09.938Z,63.01
2023-01-19T16:52:36.504Z,62.93
2023-01-19T16:55:06.914Z,63.22
2023-01-19T16:57:33.277Z,63.00
2023-01-19T16:59:59.825Z,62.84
2023-01-19T17:02:26.255Z,62.87
2023-01-19T17:04:52.652Z,62.74
2023-01-19T17:07:19.502Z,62.41
2023-01-19T17:09:45.908Z,62.55
2023-01-19T17:12:12.600Z,62.09
2023-01-19T17:14:39.442Z,62.17
2023-01-19T17:17:09.153Z,62.29
2023-01-19T17:19:35.787Z,62.25
2023-01-19T17:22:02.268Z,61.98
2023-01-19T17:24:28.738Z,62.01
2023-01-19T17:26:55.066Z,61.98
2023-01-19T17:29:21.540Z,62.48
2023-01-19T17:31:53.056Z,62.55
2023-01-19T17:34:19.394Z,62.53
2023-01-19T17:36:45.820Z,62.67
2023-01-19T17:39:14.937Z,62.43
2023-01-19T17:41:41.476Z,62.77
2023-01-19T17:44:08.004Z,63.06
2023-01-19T17:46:37.131Z,62.87
2023-01-19T17:49:06.218Z,63.19
2023-01-19T17:51:33.356Z,63.17
2023-01-19T17:53:59.878Z,62.91
2023-01-19T17:56:30.238Z,62.97
2023-01-19T17:58:58.605Z,63.21
2023-01-19T18:01:27.702Z,63.52
2023-01-19T18:03:54.516Z,63.42
2023-01-19T18:06:21.052Z,63.09
2023-01-19T18:08:48.636Z,63.62
2023-01-19T18:11:18.184Z,63.37
2023-01-19T18:13:46.190Z,62.80
2023-01-19T18:16:17.256Z,63.32
2023-01-19T18:18:44.169Z,62.87
2023-01-19T18:21:13.056Z,62.70
2023-01-19T18:23:39.912Z,63.00
2023-01-19T18:26:09.250Z,62.86
2023-01-19T18:28:36.458Z,63.17
2023-01-19T18:31:07.146Z,63.31
2023-01-19T18:33:34.087Z,62.88
2023-01-19T18:36:00.472Z,62.87
2023-01-19T18:38:27.123Z,63.33
2023-01-19T18:41:01.649Z,63.27
2023-01-19T18:43:28.168Z,63.04
2023-01-19T18:45:54.546Z,63.32
2023-01-19T18:48:20.965Z,62.83
2023-01-19T18:50:47.387Z,62.77
2023-01-19T18:53:13.811Z,62.95
2023-01-19T18:55:40.149Z,62.64
2023-01-19T18:58:07.097Z,62.61
2023-01-19T19:00:33.574Z,62.89
2023-01-19T19:02:59.979Z,62.68
2023-01-19T19:05:26.369Z,62.98
2023-01-19T19:07:52.830Z,62.57
2023-01-19T19:10:19.230Z,62.97
2023-01-19T19:12:45.641Z,62.99
2023-01-19T19:15:12.071Z,62.78
2023-01-19T19:17:38.395Z,62.92
2023-01-19T19:20:05.210Z,62.67
2023-01-19T19:22:31.687Z,62.58
2023-01-19T19:24:58.049Z,62.53
2023-01-19T19:27:24.408Z,62.81
2023-01-19T19:29:50.797Z,62.98
2023-01-19T19:32:20.426Z,62.77
2023-01-19T19:34:52.670Z,62.87
2023-01-19T19:37:19.897Z,62.78
2023-01-19T19:39:47.763Z,62.81
2023-01-19T19:42:14.194Z,62.97
2023-01-19T19:44:40.616Z,62.91
2023-01-19T19:47:07.067Z,63.02
2023-01-19T19:49:33.692Z,62.53
2023-01-19T19:52:00.093Z,62.58
2023-01-19T19:54:26.551Z,62.52
2023-01-19T19:56:53.607Z,62.29
2023-01-19T19:59:20.064Z,62.64
2023-01-19T20:01:47.134Z,62.63
2023-01-19T20:04:14.345Z,62.60
2023-01-19T20:06:44.576Z,62.88
2023-01-19T20:09:15.727Z,62.69
2023-01-19T20:11:44.291Z,62.96
2023-01-19T20:14:12.224Z,62.71
2023-01-19T20:16:39.535Z,63.21
2023-01-19T20:19:06.468Z,62.69
2023-01-19T20:21:35.828Z,62.73
2023-01-19T20:24:08.878Z,62.88
2023-01-19T20:26:38.971Z,62.65
2023-01-19T20:29:06.876Z,63.12
2023-01-19T20:31:36.714Z,62.74
2023-01-19T20:34:05.548Z,63.27
2023-01-19T20:36:31.996Z,62.88
2023-01-19T20:38:58.789Z,63.13
2023-01-19T20:41:26.546Z,63.15
2023-01-19T20:43:53.359Z,62.98
2023-01-19T20:46:20.297Z,62.90
2023-01-19T20:48:50.729Z,62.69
2023-01-19T20:51:18.696Z,62.55
2023-01-19T20:53:45.115Z,62.76
2023-01-19T20:56:13.715Z,62.62
2023-01-19T20:58:40.951Z,62.66
2023-01-19T21:01:16.744Z,62.49
2023-01-19T21:03:43.567Z,62.53
2023-01-19T21:06:10.592Z,62.29
2023-01-19T21:08:37.243Z,62.38
2023-01-19T21:11:20.939Z,62.55
2023-01-19T21:13:48.791Z,62.63
2023-01-19T21:16:15.546Z,62.51
2023-01-19T21:18:41.926Z,62.47
2023-01-19T21:21:15.003Z,62.71
2023-01-19T21:23:47.508Z,62.82
2023-01-19T21:26:14.666Z,62.47
2023-01-19T21:28:41.693Z,62.55
2023-01-19T21:31:13.813Z,62.63
2023-01-19T21:33:42.241Z,62.31
2023-01-19T21:36:10.448Z,62.68
2023-01-19T21:38:38.075Z,62.24
2023-01-19T21:41:10.970Z,62.39
2023-01-19T21:43:38.923Z,62.04
2023-01-19T21:46:32.109Z,62.39
2023-01-19T21:49:00.894Z,62.28
2023-01-19T21:51:28.868Z,62.45
2023-01-19T21:53:59.386Z,62.15
2023-01-19T21:56:27.441Z,62.06
2023-01-19T21:58:56.058Z,62.22
2023-01-19T22:01:23.679Z,62.33
2023-01-19T22:03:54.756Z,62.56
2023-01-19T22:06:21.821Z,62.40
2023-01-19T22:08:48.248Z,62.13
2023-01-19T22:11:18.243Z,62.31
2023-01-19T22:13:45.092Z,62.41
2023-01-19T22:16:14.403Z,61.96
2023-01-19T22:18:43.706Z,62.29
2023-01-19T22:21:19.160Z,62.21
2023-01-19T22:23:49.767Z,62.27
2023-01-19T22:26:16.513Z,62.47
2023-01-19T22:28:43.046Z,62.26
2023-01-19T22:31:14.472Z,62.77
2023-01-19T22:33:41.358Z,62.59
2023-01-19T22:36:21.709Z,62.80
2023-01-19T22:38:54.900Z,62.92
2023-01-19T22:41:23.792Z,62.75
2023-01-19T22:43:52.585Z,62.61
2023-01-19T22:46:25.002Z,63.06
2023-01-19T22:48:52.618Z,63.11
2023-01-19T22:51:20.228Z,63.09
2023-01-19T22:53:47.017Z,63.13
2023-01-19T22:56:19.495Z,63.22
2023-01-19T22:58:46.960Z,62.78
2023-01-19T23:01:16.423Z,62.71
2023-01-19T23:03:43.421Z,63.09
2023-01-19T23:06:12.907Z,62.94
2023-01-19T23:08:40.484Z,62.90
2023-01-19T23:11:21.867Z,63.06
2023-01-19T23:13:49.352Z,62.68
2023-01-19T23:16:15.860Z,62.99
2023-01-19T23:18:43.011Z,62.77
2023-01-19T23:21:15.632Z,63.09
2023-01-19T23:23:43.460Z,62.63
2023-01-19T23:26:21.665Z,62.88
2023-01-19T23:28:56.728Z,62.83
2023-01-19T23:31:28.795Z,62.84
2023-01-19T23:33:57.377Z,63.02
2023-01-19T23:36:26.291Z,62.81
2023-01-19T23:38:55.252Z,62.75
2023-01-19T23:41:22.692Z,63.17
2023-01-19T23:43:49.427Z,62.68
2023-01-19T23:46:17.731Z,62.99
2023-01-19T23:48:44.671Z,62.86
2023-01-19T23:51:15.178Z,62.50
2023-01-19T23:53:42.140Z,62.87
2023-01-19T23:56:17.557Z,62.56
2023-01-19T23:58:45.524Z,62.64
